Terminal Aerodrome Forecast
Issued by NWS Cleveland, OH

Home | Current Version | Previous Version | Text Only | Print | Product List | Glossary On
Versions: 1 2 3 4 5 6 7 8 9 10 11 12 13 14 15 16 17 18
434
FTUS41 KCLE 221130
TAFYNG
TAF
KYNG 221130Z 2212/2312 27007KT P6SM BKN015
     FM221500 26010KT P6SM SCT020 BKN035
     FM221700 27011G20KT P6SM SCT035
     FM222200 24011KT P6SM SCT250=

USA.gov is the U.S. government's official web portal to all federal, state and local government web resources and services.